Jeanerette, Louisiana
Current Conditions -  °F | °C
As of 7:03 PM on Friday 19 Dec 2014 (Local Time) from KARA Reporting Station
Overcast Overcast  
Wind Chill: 11°   Ceiling: 4500
Heat Index: 11°   Visibility: 10mi
Dew Point:   Wind: 10mph
Humidity: 86%   Direction: 60°ENE
Pressure: 30.07"   Gusts: NA
Location:  29.91°N, 91.66°W
Report Text: KARA 200103Z 06009KT 10SM FEW008 OVC045 11/09 A3007 RMK AO2 T01110089
Loading
Personal Weather Stations






























Interactive Weather Map New forecast layout! Learn more

10-Day Weather Forecast

Advertisements
Track Severe Weather on mobile